Perwez, Belgium
Current Conditions -  °F | °C
As of 11:19 AM on Tuesday 27 Jan 2015 (Local Time) from EBBE Reporting Station
Broken Clouds Broken Clouds  
Wind Chill:   Ceiling: 25000
Heat Index:   Visibility: 6mi
Dew Point:   Wind: 9mph
Humidity: 93%   Direction: 260°W
Pressure: 30.27"   Gusts: NA
Location:  50.62°N, 4.81°E
Report Text: EBBE 271019Z 26008KT 9999 FEW011 SCT170 BKN250 04/03 Q1025 BLU WHT TEMPO GRN
Loading
Personal Weather Stations






























Interactive Weather Map New forecast layout! Learn more

10-Day Weather Forecast

Advertisements
Track Severe Weather on mobile